createdAt,value
2023-01-13T00:01:48.209Z,8.13
2023-01-13T00:07:08.995Z,6.70
2023-01-13T00:12:30.215Z,5.43
2023-01-13T00:17:51.252Z,7.90
2023-01-13T00:23:12.306Z,7.43
2023-01-13T00:28:33.485Z,6.28
2023-01-13T00:34:00.986Z,6.85
2023-01-13T00:39:22.002Z,5.85
2023-01-13T00:44:43.038Z,4.90
2023-01-13T00:50:03.896Z,5.93
2023-01-13T00:55:24.770Z,6.10
2023-01-13T01:00:46.112Z,6.25
2023-01-13T01:06:16.578Z,5.53
2023-01-13T01:11:38.123Z,5.63
2023-01-13T01:16:58.979Z,6.47
2023-01-13T01:22:20.122Z,6.32
2023-01-13T01:27:40.920Z,5.97
2023-01-13T01:33:03.407Z,5.68
2023-01-13T01:38:24.281Z,6.90
2023-01-13T01:44:04.355Z,6.28
2023-01-13T01:49:34.007Z,6.03
2023-01-13T01:55:03.663Z,7.30
2023-01-13T02:00:27.172Z,6.15
2023-01-13T02:05:47.883Z,6.53
2023-01-13T02:11:46.538Z,4.50
2023-01-13T02:17:36.831Z,5.05
2023-01-13T02:23:41.793Z,6.30
2023-01-13T02:29:43.674Z,6.25
2023-01-13T02:35:12.672Z,6.10
2023-01-13T02:40:40.361Z,6.50
2023-01-13T02:46:49.732Z,6.32
2023-01-13T02:52:17.800Z,6.35
2023-01-13T02:57:41.173Z,7.90
2023-01-13T03:03:02.417Z,4.28
2023-01-13T03:08:43.213Z,4.93
2023-01-13T03:14:20.927Z,5.25
2023-01-13T03:19:53.533Z,5.38
2023-01-13T03:25:22.790Z,5.95
2023-01-13T03:30:50.021Z,5.93
2023-01-13T03:36:15.000Z,5.25
2023-01-13T03:41:48.877Z,5.90
2023-01-13T03:47:52.347Z,5.03
2023-01-13T03:53:22.899Z,4.68
2023-01-13T03:58:48.184Z,5.15
2023-01-13T04:04:32.330Z,6.03
2023-01-13T04:09:56.443Z,5.80
2023-01-13T04:15:27.985Z,7.07
2023-01-13T04:20:50.510Z,6.43
2023-01-13T04:26:11.273Z,5.85
2023-01-13T04:39:03.994Z,7.03
2023-01-13T04:44:24.377Z,7.72
2023-01-13T04:49:45.280Z,6.55
2023-01-13T04:55:07.083Z,6.50
2023-01-13T05:00:27.510Z,6.82
2023-01-13T05:05:51.479Z,6.35
2023-01-13T05:11:30.952Z,4.50
2023-01-13T05:17:00.404Z,5.93
2023-01-13T05:22:39.499Z,4.68
2023-01-13T05:28:00.693Z,5.45
2023-01-13T05:33:21.193Z,6.65
2023-01-13T05:38:42.209Z,6.35
2023-01-13T05:44:02.737Z,7.68
2023-01-13T05:49:23.749Z,7.32
2023-01-13T05:54:44.239Z,8.13
2023-01-13T06:00:05.612Z,7.82
2023-01-13T06:05:33.374Z,7.68
2023-01-13T06:10:54.023Z,6.00
2023-01-13T06:16:14.573Z,5.25
2023-01-13T06:21:35.656Z,3.47
2023-01-13T06:26:56.858Z,3.90
2023-01-13T06:32:21.607Z,4.45
2023-01-13T06:37:45.110Z,4.38
2023-01-13T06:43:17.919Z,3.77
2023-01-13T06:48:38.367Z,4.25
2023-01-13T06:53:59.151Z,4.40
2023-01-13T06:59:19.595Z,4.38
2023-01-13T07:04:40.314Z,5.50
2023-01-13T07:10:00.853Z,4.57
2023-01-13T07:15:21.772Z,5.38
2023-01-13T07:20:42.352Z,4.97
2023-01-13T07:26:03.093Z,4.50
2023-01-13T07:31:23.786Z,5.90
2023-01-13T07:36:44.212Z,7.00
2023-01-13T07:42:23.283Z,7.80
2023-01-13T07:47:43.857Z,6.75
2023-01-13T07:53:04.819Z,5.63
2023-01-13T07:58:26.196Z,6.00
2023-01-13T08:03:46.964Z,6.70
2023-01-13T08:09:08.505Z,6.70
2023-01-13T08:14:29.369Z,7.30
2023-01-13T08:19:50.100Z,7.95
2023-01-13T08:25:10.897Z,5.10
2023-01-13T08:30:31.848Z,7.43
2023-01-13T08:35:53.244Z,6.90
2023-01-13T08:41:36.271Z,7.00
2023-01-13T08:46:57.395Z,7.28
2023-01-13T08:52:17.802Z,6.82
2023-01-13T08:57:38.334Z,6.80
2023-01-13T09:02:58.928Z,8.07
2023-01-13T09:08:24.274Z,10.07
2023-01-13T09:13:46.061Z,7.07
2023-01-13T09:19:06.821Z,6.10
2023-01-13T09:24:27.439Z,5.80
2023-01-13T09:29:48.065Z,6.30
2023-01-13T09:35:09.478Z,7.15
2023-01-13T09:40:30.173Z,6.22
2023-01-13T09:46:02.067Z,5.47
2023-01-13T09:51:31.757Z,6.55
2023-01-13T09:56:53.119Z,7.25
2023-01-13T10:02:19.373Z,6.57
2023-01-13T10:07:49.553Z,8.00
2023-01-13T10:13:20.535Z,7.03
2023-01-13T10:19:02.998Z,5.80
2023-01-13T10:24:45.856Z,6.18
2023-01-13T10:30:25.995Z,8.57
2023-01-13T10:35:52.732Z,8.52
2023-01-13T10:41:18.064Z,7.35
2023-01-13T10:46:53.471Z,6.30
2023-01-13T10:52:30.599Z,9.05
2023-01-13T10:57:51.078Z,9.38
2023-01-13T11:03:17.789Z,8.75
2023-01-13T11:08:45.871Z,7.63
2023-01-13T11:14:36.930Z,7.60
2023-01-13T11:20:05.166Z,7.63
2023-01-13T11:25:33.821Z,8.10
2023-01-13T11:31:14.537Z,7.68
2023-01-13T11:36:40.155Z,7.57
2023-01-13T11:42:21.804Z,6.97
2023-01-13T11:47:46.889Z,6.80
2023-01-13T11:59:00.899Z,6.50
2023-01-13T12:04:29.428Z,3.88
2023-01-13T12:10:13.653Z,7.22
2023-01-13T12:16:02.130Z,7.35
2023-01-13T12:21:54.686Z,5.60
2023-01-13T12:27:23.719Z,6.97
2023-01-13T12:32:45.609Z,7.35
2023-01-13T12:38:24.251Z,5.78
2023-01-13T12:44:07.137Z,6.05
2023-01-13T12:49:35.216Z,6.30
2023-01-13T12:54:55.556Z,4.65
2023-01-13T13:00:16.923Z,3.75
2023-01-13T13:06:07.769Z,2.40
2023-01-13T13:11:56.444Z,3.53
2023-01-13T13:17:19.606Z,4.57
2023-01-13T13:22:49.977Z,4.18
2023-01-13T13:28:18.245Z,4.95
2023-01-13T13:33:58.464Z,2.60
2023-01-13T13:39:43.105Z,3.50
2023-01-13T13:45:40.052Z,2.90
2023-01-13T13:51:04.698Z,2.95
2023-01-13T13:56:29.051Z,3.80
2023-01-13T14:02:00.730Z,4.10
2023-01-13T14:07:21.914Z,2.10
2023-01-13T14:12:42.399Z,4.85
2023-01-13T14:18:06.337Z,2.70
2023-01-13T14:23:30.221Z,2.73
2023-01-13T14:28:51.099Z,3.17
2023-01-13T14:34:31.751Z,4.15
2023-01-13T14:39:54.049Z,3.05
2023-01-13T14:45:24.445Z,3.40
2023-01-13T14:50:46.685Z,6.53
2023-01-13T14:56:36.435Z,3.55
2023-01-13T15:01:57.311Z,4.22
2023-01-13T15:07:25.565Z,5.97
2023-01-13T15:12:49.228Z,4.47
2023-01-13T15:18:17.343Z,3.58
2023-01-13T15:23:41.056Z,4.15
2023-01-13T15:29:05.517Z,5.00
2023-01-13T15:34:26.232Z,3.70
2023-01-13T15:39:46.756Z,4.40
2023-01-13T15:45:27.918Z,5.07
2023-01-13T15:50:48.378Z,3.92
2023-01-13T15:56:18.797Z,2.97
2023-01-13T16:01:39.165Z,3.38
2023-01-13T16:06:59.594Z,4.97
2023-01-13T16:12:20.466Z,3.17
2023-01-13T16:17:42.277Z,3.00
2023-01-13T16:23:02.807Z,2.90
2023-01-13T16:28:28.085Z,4.72
2023-01-13T16:33:48.620Z,3.13
2023-01-13T16:39:20.972Z,2.70
2023-01-13T16:44:41.377Z,1.77
2023-01-13T16:50:02.955Z,4.90
2023-01-13T16:55:23.519Z,4.18
2023-01-13T17:00:48.050Z,4.65
2023-01-13T17:06:11.050Z,4.60
2023-01-13T17:11:32.110Z,4.00
2023-01-13T17:16:55.445Z,4.75
2023-01-13T17:22:15.901Z,5.85
2023-01-13T17:27:36.360Z,5.00
2023-01-13T17:32:56.882Z,3.83
2023-01-13T17:38:17.732Z,7.35
2023-01-13T17:43:38.306Z,3.33
2023-01-13T17:48:58.735Z,6.05
2023-01-13T17:54:19.525Z,6.43
2023-01-13T17:59:41.436Z,6.07
2023-01-13T18:05:01.993Z,5.88
2023-01-13T18:10:23.130Z,5.20
2023-01-13T18:15:43.648Z,6.05
2023-01-13T18:21:23.436Z,3.95
2023-01-13T18:27:04.764Z,4.65
2023-01-13T18:32:31.465Z,5.68
2023-01-13T18:37:53.174Z,4.47
2023-01-13T18:43:14.491Z,4.93
2023-01-13T18:48:35.416Z,4.95
2023-01-13T18:53:56.003Z,5.05
2023-01-13T18:59:17.563Z,4.32
2023-01-13T19:04:38.958Z,4.18
2023-01-13T19:10:00.472Z,2.90
2023-01-13T19:15:21.012Z,1.88
2023-01-13T19:20:41.971Z,2.70
2023-01-13T19:26:05.958Z,5.47
2023-01-13T19:31:26.488Z,4.72
2023-01-13T19:36:47.079Z,2.58
2023-01-13T19:42:26.723Z,2.97
2023-01-13T19:47:47.140Z,4.40
2023-01-13T19:53:15.984Z,4.10
2023-01-13T19:58:36.797Z,5.05
2023-01-13T20:04:03.097Z,4.78
2023-01-13T20:09:23.583Z,4.30
2023-01-13T20:14:45.153Z,5.72
2023-01-13T20:20:06.668Z,5.80
2023-01-13T20:25:31.038Z,4.60
2023-01-13T20:36:26.368Z,3.22
2023-01-13T20:42:05.824Z,2.33
2023-01-13T20:47:28.033Z,4.30
2023-01-13T20:52:48.650Z,5.32
2023-01-13T20:58:09.231Z,3.65
2023-01-13T21:03:30.052Z,5.38
2023-01-13T21:08:54.130Z,5.25
2023-01-13T21:14:33.280Z,5.93
2023-01-13T21:19:53.715Z,3.20
2023-01-13T21:25:15.714Z,1.88
2023-01-13T21:30:38.814Z,3.95
2023-01-13T21:36:08.090Z,5.10
2023-01-13T21:41:47.616Z,4.25
2023-01-13T21:47:37.588Z,4.78
2023-01-13T21:52:58.844Z,5.10
2023-01-13T21:58:19.260Z,2.63
2023-01-13T22:03:59.030Z,4.28
2023-01-13T22:09:19.639Z,3.20
2023-01-13T22:14:40.144Z,5.28
2023-01-13T22:20:01.361Z,4.85
2023-01-13T22:25:21.696Z,1.83
2023-01-13T22:30:42.437Z,3.85
2023-01-13T22:36:03.130Z,2.60
2023-01-13T22:41:23.928Z,3.67
2023-01-13T22:46:44.662Z,2.55
2023-01-13T22:52:05.826Z,3.38
2023-01-13T22:57:36.043Z,4.18
2023-01-13T23:02:59.333Z,4.90
2023-01-13T23:08:19.861Z,3.13
2023-01-13T23:13:43.155Z,3.85
2023-01-13T23:19:05.796Z,2.38
2023-01-13T23:24:27.875Z,3.05
2023-01-13T23:29:49.030Z,3.67
2023-01-13T23:35:09.900Z,3.95
2023-01-13T23:40:30.704Z,2.72
2023-01-13T23:45:51.656Z,2.35
2023-01-13T23:51:13.433Z,2.00
2023-01-13T23:56:35.041Z,4.03
